sensor_id;sensor_type;location;lat;lon;timestamp;P1;durP1;ratioP1;P2;durP2;ratioP2
62707;SDS011;48769;51.624;5.886;2023-05-02T00:00:07;61.00;;;32.65;;
62707;SDS011;48769;51.624;5.886;2023-05-02T00:02:33;55.38;;;34.10;;
62707;SDS011;48769;51.624;5.886;2023-05-02T00:04:58;54.22;;;30.60;;
62707;SDS011;48769;51.624;5.886;2023-05-02T00:07:25;53.22;;;30.88;;
62707;SDS011;48769;51.624;5.886;2023-05-02T00:09:50;52.47;;;29.95;;
62707;SDS011;48769;51.624;5.886;2023-05-02T00:12:16;57.45;;;32.38;;
62707;SDS011;48769;51.624;5.886;2023-05-02T00:14:41;53.75;;;31.23;;
62707;SDS011;48769;51.624;5.886;2023-05-02T00:17:07;52.53;;;32.10;;
62707;SDS011;48769;51.624;5.886;2023-05-02T00:19:36;55.90;;;32.15;;
62707;SDS011;48769;51.624;5.886;2023-05-02T00:22:04;55.22;;;32.20;;
62707;SDS011;48769;51.624;5.886;2023-05-02T00:24:29;52.03;;;30.27;;
62707;SDS011;48769;51.624;5.886;2023-05-02T00:26:54;52.72;;;31.17;;
62707;SDS011;48769;51.624;5.886;2023-05-02T00:29:20;51.67;;;30.02;;
62707;SDS011;48769;51.624;5.886;2023-05-02T00:31:45;53.97;;;31.58;;
62707;SDS011;48769;51.624;5.886;2023-05-02T00:34:11;52.65;;;29.88;;
62707;SDS011;48769;51.624;5.886;2023-05-02T00:36:36;56.63;;;31.33;;
62707;SDS011;48769;51.624;5.886;2023-05-02T00:39:02;58.85;;;32.28;;
62707;SDS011;48769;51.624;5.886;2023-05-02T00:41:28;55.85;;;31.88;;
62707;SDS011;48769;51.624;5.886;2023-05-02T00:43:53;59.90;;;32.97;;
62707;SDS011;48769;51.624;5.886;2023-05-02T00:46:18;52.97;;;30.42;;
62707;SDS011;48769;51.624;5.886;2023-05-02T00:48:44;57.97;;;31.15;;
62707;SDS011;48769;51.624;5.886;2023-05-02T00:51:09;53.17;;;31.50;;
62707;SDS011;48769;51.624;5.886;2023-05-02T00:53:37;55.08;;;31.65;;
62707;SDS011;48769;51.624;5.886;2023-05-02T00:56:03;48.67;;;30.15;;
62707;SDS011;48769;51.624;5.886;2023-05-02T00:58:29;57.08;;;31.60;;
62707;SDS011;48769;51.624;5.886;2023-05-02T01:14:50;43.22;;;25.98;;
62707;SDS011;48769;51.624;5.886;2023-05-02T01:17:19;45.03;;;25.80;;
62707;SDS011;48769;51.624;5.886;2023-05-02T01:19:52;44.17;;;27.17;;
62707;SDS011;48769;51.624;5.886;2023-05-02T01:22:20;46.90;;;28.42;;
62707;SDS011;48769;51.624;5.886;2023-05-02T01:30:03;48.17;;;29.52;;
62707;SDS011;48769;51.624;5.886;2023-05-02T01:32:32;51.00;;;31.00;;
62707;SDS011;48769;51.624;5.886;2023-05-02T01:34:58;50.85;;;29.88;;
62707;SDS011;48769;51.624;5.886;2023-05-02T01:37:27;51.08;;;30.33;;
62707;SDS011;48769;51.624;5.886;2023-05-02T01:39:53;52.42;;;30.13;;
62707;SDS011;48769;51.624;5.886;2023-05-02T01:42:20;51.45;;;32.25;;
62707;SDS011;48769;51.624;5.886;2023-05-02T01:44:47;57.28;;;32.45;;
62707;SDS011;48769;51.624;5.886;2023-05-02T01:47:15;45.55;;;28.17;;
62707;SDS011;48769;51.624;5.886;2023-05-02T01:49:42;46.85;;;30.35;;
62707;SDS011;48769;51.624;5.886;2023-05-02T01:52:10;47.47;;;29.20;;
62707;SDS011;48769;51.624;5.886;2023-05-02T01:54:36;51.60;;;28.65;;
62707;SDS011;48769;51.624;5.886;2023-05-02T01:57:05;44.10;;;28.27;;
62707;SDS011;48769;51.624;5.886;2023-05-02T01:59:33;42.78;;;28.23;;
62707;SDS011;48769;51.624;5.886;2023-05-02T02:02:00;47.30;;;29.35;;
62707;SDS011;48769;51.624;5.886;2023-05-02T02:04:28;44.40;;;27.83;;
62707;SDS011;48769;51.624;5.886;2023-05-02T02:06:57;42.50;;;27.88;;
62707;SDS011;48769;51.624;5.886;2023-05-02T02:09:26;41.25;;;26.42;;
62707;SDS011;48769;51.624;5.886;2023-05-02T02:11:52;48.90;;;28.80;;
62707;SDS011;48769;51.624;5.886;2023-05-02T02:14:27;45.40;;;29.30;;
62707;SDS011;48769;51.624;5.886;2023-05-02T02:22:30;44.40;;;27.70;;
62707;SDS011;48769;51.624;5.886;2023-05-02T02:25:02;41.53;;;27.40;;
62707;SDS011;48769;51.624;5.886;2023-05-02T02:27:29;45.47;;;28.85;;
62707;SDS011;48769;51.624;5.886;2023-05-02T02:29:54;46.03;;;28.50;;
62707;SDS011;48769;51.624;5.886;2023-05-02T02:32:20;46.13;;;28.58;;
62707;SDS011;48769;51.624;5.886;2023-05-02T02:34:45;42.88;;;27.92;;
62707;SDS011;48769;51.624;5.886;2023-05-02T02:37:17;46.40;;;28.00;;
62707;SDS011;48769;51.624;5.886;2023-05-02T02:42:19;45.38;;;28.08;;
62707;SDS011;48769;51.624;5.886;2023-05-02T02:44:54;42.58;;;26.83;;
62707;SDS011;48769;51.624;5.886;2023-05-02T02:47:35;42.28;;;27.17;;
62707;SDS011;48769;51.624;5.886;2023-05-02T02:53:08;46.88;;;29.52;;
62707;SDS011;48769;51.624;5.886;2023-05-02T03:00:44;48.15;;;27.67;;
62707;SDS011;48769;51.624;5.886;2023-05-02T03:03:11;42.97;;;28.25;;
62707;SDS011;48769;51.624;5.886;2023-05-02T03:05:39;43.65;;;26.83;;
62707;SDS011;48769;51.624;5.886;2023-05-02T03:08:06;41.50;;;26.30;;
62707;SDS011;48769;51.624;5.886;2023-05-02T03:10:31;45.35;;;27.17;;
62707;SDS011;48769;51.624;5.886;2023-05-02T03:12:57;39.20;;;24.33;;
62707;SDS011;48769;51.624;5.886;2023-05-02T03:18:13;42.53;;;26.13;;
62707;SDS011;48769;51.624;5.886;2023-05-02T03:20:38;46.58;;;27.95;;
62707;SDS011;48769;51.624;5.886;2023-05-02T03:23:04;38.63;;;25.58;;
62707;SDS011;48769;51.624;5.886;2023-05-02T03:25:29;46.03;;;26.35;;
62707;SDS011;48769;51.624;5.886;2023-05-02T03:27:55;42.70;;;25.40;;
62707;SDS011;48769;51.624;5.886;2023-05-02T03:30:21;41.63;;;25.77;;
62707;SDS011;48769;51.624;5.886;2023-05-02T03:32:47;39.25;;;24.15;;
62707;SDS011;48769;51.624;5.886;2023-05-02T03:35:12;32.65;;;19.65;;
62707;SDS011;48769;51.624;5.886;2023-05-02T03:37:37;29.92;;;15.98;;
62707;SDS011;48769;51.624;5.886;2023-05-02T03:40:03;14.68;;;10.02;;
62707;SDS011;48769;51.624;5.886;2023-05-02T03:42:29;17.35;;;9.23;;
62707;SDS011;48769;51.624;5.886;2023-05-02T03:44:54;17.30;;;7.50;;
62707;SDS011;48769;51.624;5.886;2023-05-02T03:47:20;15.57;;;8.23;;
62707;SDS011;48769;51.624;5.886;2023-05-02T03:49:45;18.60;;;7.80;;
62707;SDS011;48769;51.624;5.886;2023-05-02T03:52:11;16.92;;;7.90;;
62707;SDS011;48769;51.624;5.886;2023-05-02T03:54:36;15.05;;;7.93;;
62707;SDS011;48769;51.624;5.886;2023-05-02T03:57:02;17.38;;;7.70;;
62707;SDS011;48769;51.624;5.886;2023-05-02T03:59:31;14.45;;;7.65;;
62707;SDS011;48769;51.624;5.886;2023-05-02T04:01:57;13.35;;;6.88;;
62707;SDS011;48769;51.624;5.886;2023-05-02T04:04:23;21.08;;;7.50;;
62707;SDS011;48769;51.624;5.886;2023-05-02T04:06:48;18.38;;;7.45;;
62707;SDS011;48769;51.624;5.886;2023-05-02T04:09:13;20.90;;;6.88;;
62707;SDS011;48769;51.624;5.886;2023-05-02T04:11:38;20.55;;;6.47;;
62707;SDS011;48769;51.624;5.886;2023-05-02T04:14:04;19.70;;;6.88;;
62707;SDS011;48769;51.624;5.886;2023-05-02T04:16:29;22.23;;;6.88;;
62707;SDS011;48769;51.624;5.886;2023-05-02T04:18:54;13.85;;;7.10;;
62707;SDS011;48769;51.624;5.886;2023-05-02T04:21:20;26.08;;;6.93;;
62707;SDS011;48769;51.624;5.886;2023-05-02T04:23:45;17.63;;;6.45;;
62707;SDS011;48769;51.624;5.886;2023-05-02T04:26:11;17.17;;;5.85;;
62707;SDS011;48769;51.624;5.886;2023-05-02T04:28:36;14.43;;;5.13;;
62707;SDS011;48769;51.624;5.886;2023-05-02T04:31:01;19.88;;;6.20;;
62707;SDS011;48769;51.624;5.886;2023-05-02T04:33:28;14.45;;;5.07;;
62707;SDS011;48769;51.624;5.886;2023-05-02T04:35:53;15.07;;;4.97;;
62707;SDS011;48769;51.624;5.886;2023-05-02T04:38:18;14.57;;;5.15;;
62707;SDS011;48769;51.624;5.886;2023-05-02T04:40:44;17.73;;;5.30;;
62707;SDS011;48769;51.624;5.886;2023-05-02T04:43:10;14.40;;;4.38;;
62707;SDS011;48769;51.624;5.886;2023-05-02T04:45:35;18.48;;;5.22;;
62707;SDS011;48769;51.624;5.886;2023-05-02T04:48:01;11.75;;;3.85;;
62707;SDS011;48769;51.624;5.886;2023-05-02T04:50:26;11.88;;;3.80;;
62707;SDS011;48769;51.624;5.886;2023-05-02T04:52:53;12.63;;;3.85;;
62707;SDS011;48769;51.624;5.886;2023-05-02T04:55:18;15.32;;;4.10;;
62707;SDS011;48769;51.624;5.886;2023-05-02T04:57:43;9.70;;;3.10;;
62707;SDS011;48769;51.624;5.886;2023-05-02T05:00:09;12.45;;;3.03;;
62707;SDS011;48769;51.624;5.886;2023-05-02T05:02:35;9.73;;;3.25;;
62707;SDS011;48769;51.624;5.886;2023-05-02T05:05:00;12.65;;;4.00;;
62707;SDS011;48769;51.624;5.886;2023-05-02T05:07:26;11.57;;;3.33;;
62707;SDS011;48769;51.624;5.886;2023-05-02T05:09:52;8.95;;;3.38;;
62707;SDS011;48769;51.624;5.886;2023-05-02T05:12:20;7.15;;;3.70;;
62707;SDS011;48769;51.624;5.886;2023-05-02T05:14:45;10.35;;;3.30;;
62707;SDS011;48769;51.624;5.886;2023-05-02T05:17:11;10.75;;;3.80;;
62707;SDS011;48769;51.624;5.886;2023-05-02T05:19:36;9.93;;;3.60;;
62707;SDS011;48769;51.624;5.886;2023-05-02T05:22:01;6.53;;;3.58;;
62707;SDS011;48769;51.624;5.886;2023-05-02T05:24:27;12.07;;;3.28;;
62707;SDS011;48769;51.624;5.886;2023-05-02T05:26:52;6.93;;;2.65;;
62707;SDS011;48769;51.624;5.886;2023-05-02T05:29:17;10.95;;;3.05;;
62707;SDS011;48769;51.624;5.886;2023-05-02T05:31:43;16.38;;;3.53;;
62707;SDS011;48769;51.624;5.886;2023-05-02T05:34:08;12.35;;;3.53;;
62707;SDS011;48769;51.624;5.886;2023-05-02T05:36:33;12.38;;;3.75;;
62707;SDS011;48769;51.624;5.886;2023-05-02T05:38:59;10.93;;;4.20;;
62707;SDS011;48769;51.624;5.886;2023-05-02T05:41:25;12.15;;;4.53;;
62707;SDS011;48769;51.624;5.886;2023-05-02T05:43:50;9.98;;;3.47;;
62707;SDS011;48769;51.624;5.886;2023-05-02T05:46:16;14.85;;;3.58;;
62707;SDS011;48769;51.624;5.886;2023-05-02T05:48:41;8.43;;;3.47;;
62707;SDS011;48769;51.624;5.886;2023-05-02T05:51:06;10.95;;;3.67;;
62707;SDS011;48769;51.624;5.886;2023-05-02T05:53:32;10.02;;;3.53;;
62707;SDS011;48769;51.624;5.886;2023-05-02T05:55:57;15.80;;;4.30;;
62707;SDS011;48769;51.624;5.886;2023-05-02T05:58:23;13.77;;;3.80;;
62707;SDS011;48769;51.624;5.886;2023-05-02T06:00:48;12.75;;;3.80;;
62707;SDS011;48769;51.624;5.886;2023-05-02T06:03:14;10.13;;;3.85;;
62707;SDS011;48769;51.624;5.886;2023-05-02T06:05:40;11.60;;;3.58;;
62707;SDS011;48769;51.624;5.886;2023-05-02T06:08:06;13.45;;;3.58;;
62707;SDS011;48769;51.624;5.886;2023-05-02T06:10:32;9.13;;;4.22;;
62707;SDS011;48769;51.624;5.886;2023-05-02T06:12:57;11.70;;;3.95;;
62707;SDS011;48769;51.624;5.886;2023-05-02T06:15:23;10.23;;;3.95;;
62707;SDS011;48769;51.624;5.886;2023-05-02T06:17:51;10.27;;;3.75;;
62707;SDS011;48769;51.624;5.886;2023-05-02T06:20:17;12.07;;;4.05;;
62707;SDS011;48769;51.624;5.886;2023-05-02T06:22:42;12.63;;;3.22;;
62707;SDS011;48769;51.624;5.886;2023-05-02T06:25:08;13.75;;;4.03;;
62707;SDS011;48769;51.624;5.886;2023-05-02T06:27:33;15.10;;;3.85;;
62707;SDS011;48769;51.624;5.886;2023-05-02T06:29:59;9.10;;;3.08;;
62707;SDS011;48769;51.624;5.886;2023-05-02T06:32:24;12.80;;;3.60;;
62707;SDS011;48769;51.624;5.886;2023-05-02T06:34:53;11.63;;;3.55;;
62707;SDS011;48769;51.624;5.886;2023-05-02T06:37:19;12.00;;;3.40;;
62707;SDS011;48769;51.624;5.886;2023-05-02T06:39:44;10.75;;;3.40;;
62707;SDS011;48769;51.624;5.886;2023-05-02T06:42:10;12.55;;;3.75;;
62707;SDS011;48769;51.624;5.886;2023-05-02T06:44:35;7.55;;;3.10;;
62707;SDS011;48769;51.624;5.886;2023-05-02T06:47:00;13.98;;;3.40;;
62707;SDS011;48769;51.624;5.886;2023-05-02T06:49:30;16.13;;;3.35;;
62707;SDS011;48769;51.624;5.886;2023-05-02T06:51:56;7.75;;;2.90;;
62707;SDS011;48769;51.624;5.886;2023-05-02T06:54:21;10.95;;;3.03;;
62707;SDS011;48769;51.624;5.886;2023-05-02T06:56:47;12.30;;;3.47;;
62707;SDS011;48769;51.624;5.886;2023-05-02T06:59:12;9.70;;;2.80;;
62707;SDS011;48769;51.624;5.886;2023-05-02T07:01:37;9.95;;;3.60;;
62707;SDS011;48769;51.624;5.886;2023-05-02T07:04:03;19.95;;;4.05;;
62707;SDS011;48769;51.624;5.886;2023-05-02T07:06:29;10.70;;;3.25;;
62707;SDS011;48769;51.624;5.886;2023-05-02T07:08:55;11.95;;;3.17;;
62707;SDS011;48769;51.624;5.886;2023-05-02T07:11:21;13.40;;;3.55;;
62707;SDS011;48769;51.624;5.886;2023-05-02T07:13:48;13.82;;;3.95;;
62707;SDS011;48769;51.624;5.886;2023-05-02T07:16:13;11.43;;;3.13;;
62707;SDS011;48769;51.624;5.886;2023-05-02T07:18:39;7.28;;;2.15;;
62707;SDS011;48769;51.624;5.886;2023-05-02T07:21:06;15.93;;;2.95;;
62707;SDS011;48769;51.624;5.886;2023-05-02T07:23:32;10.80;;;3.08;;
62707;SDS011;48769;51.624;5.886;2023-05-02T07:25:58;14.80;;;3.50;;
62707;SDS011;48769;51.624;5.886;2023-05-02T07:28:23;13.68;;;3.13;;
62707;SDS011;48769;51.624;5.886;2023-05-02T07:30:48;10.02;;;2.67;;
62707;SDS011;48769;51.624;5.886;2023-05-02T07:33:14;9.18;;;2.75;;
62707;SDS011;48769;51.624;5.886;2023-05-02T07:35:40;17.10;;;3.70;;
62707;SDS011;48769;51.624;5.886;2023-05-02T07:38:06;11.63;;;3.53;;
62707;SDS011;48769;51.624;5.886;2023-05-02T07:40:31;16.70;;;4.18;;
62707;SDS011;48769;51.624;5.886;2023-05-02T07:42:57;11.98;;;3.22;;
62707;SDS011;48769;51.624;5.886;2023-05-02T07:45:23;9.98;;;4.05;;
62707;SDS011;48769;51.624;5.886;2023-05-02T07:47:48;10.43;;;3.47;;
62707;SDS011;48769;51.624;5.886;2023-05-02T07:50:13;11.82;;;3.58;;
62707;SDS011;48769;51.624;5.886;2023-05-02T07:52:39;18.75;;;3.78;;
62707;SDS011;48769;51.624;5.886;2023-05-02T07:55:04;15.48;;;3.50;;
62707;SDS011;48769;51.624;5.886;2023-05-02T07:57:30;12.25;;;3.42;;
62707;SDS011;48769;51.624;5.886;2023-05-02T07:59:56;14.93;;;4.25;;
62707;SDS011;48769;51.624;5.886;2023-05-02T08:02:21;13.15;;;3.63;;
62707;SDS011;48769;51.624;5.886;2023-05-02T08:04:47;12.30;;;4.07;;
62707;SDS011;48769;51.624;5.886;2023-05-02T08:07:13;12.38;;;4.10;;
62707;SDS011;48769;51.624;5.886;2023-05-02T08:09:38;15.50;;;3.85;;
62707;SDS011;48769;51.624;5.886;2023-05-02T08:12:04;11.38;;;3.45;;
62707;SDS011;48769;51.624;5.886;2023-05-02T08:14:29;12.80;;;3.88;;
62707;SDS011;48769;51.624;5.886;2023-05-02T08:16:55;11.60;;;3.63;;
62707;SDS011;48769;51.624;5.886;2023-05-02T08:19:21;19.45;;;5.13;;
62707;SDS011;48769;51.624;5.886;2023-05-02T08:21:46;13.88;;;3.65;;
62707;SDS011;48769;51.624;5.886;2023-05-02T08:24:11;15.88;;;4.28;;
62707;SDS011;48769;51.624;5.886;2023-05-02T08:26:37;14.68;;;4.45;;
62707;SDS011;48769;51.624;5.886;2023-05-02T08:29:02;17.50;;;4.80;;
62707;SDS011;48769;51.624;5.886;2023-05-02T08:31:28;16.08;;;4.60;;
62707;SDS011;48769;51.624;5.886;2023-05-02T08:33:54;16.17;;;3.33;;
62707;SDS011;48769;51.624;5.886;2023-05-02T08:36:20;12.27;;;3.60;;
62707;SDS011;48769;51.624;5.886;2023-05-02T08:38:45;21.25;;;3.80;;
62707;SDS011;48769;51.624;5.886;2023-05-02T08:43:41;13.60;;;3.30;;
62707;SDS011;48769;51.624;5.886;2023-05-02T08:46:08;9.95;;;2.78;;
62707;SDS011;48769;51.624;5.886;2023-05-02T08:48:35;10.15;;;3.33;;
62707;SDS011;48769;51.624;5.886;2023-05-02T08:51:02;15.07;;;4.07;;
62707;SDS011;48769;51.624;5.886;2023-05-02T08:53:31;6.80;;;2.55;;
62707;SDS011;48769;51.624;5.886;2023-05-02T08:55:58;9.65;;;2.58;;
62707;SDS011;48769;51.624;5.886;2023-05-02T08:58:24;12.63;;;2.53;;
62707;SDS011;48769;51.624;5.886;2023-05-02T09:00:49;11.95;;;2.90;;
62707;SDS011;48769;51.624;5.886;2023-05-02T09:05:45;8.13;;;2.47;;
62707;SDS011;48769;51.624;5.886;2023-05-02T09:08:22;11.93;;;3.10;;
62707;SDS011;48769;51.624;5.886;2023-05-02T09:10:48;9.95;;;2.90;;
62707;SDS011;48769;51.624;5.886;2023-05-02T09:13:27;9.60;;;2.80;;
62707;SDS011;48769;51.624;5.886;2023-05-02T09:16:22;9.63;;;2.65;;
62707;SDS011;48769;51.624;5.886;2023-05-02T09:18:51;9.55;;;2.97;;
62707;SDS011;48769;51.624;5.886;2023-05-02T09:21:21;7.40;;;2.72;;
62707;SDS011;48769;51.624;5.886;2023-05-02T09:26:16;7.60;;;2.53;;
62707;SDS011;48769;51.624;5.886;2023-05-02T09:28:49;13.80;;;2.92;;
62707;SDS011;48769;51.624;5.886;2023-05-02T09:31:17;18.00;;;4.30;;
62707;SDS011;48769;51.624;5.886;2023-05-02T09:33:44;16.15;;;3.15;;
62707;SDS011;48769;51.624;5.886;2023-05-02T09:36:11;10.85;;;3.47;;
62707;SDS011;48769;51.624;5.886;2023-05-02T09:38:38;14.73;;;3.35;;
62707;SDS011;48769;51.624;5.886;2023-05-02T09:41:04;12.05;;;3.85;;
62707;SDS011;48769;51.624;5.886;2023-05-02T09:43:30;12.43;;;4.07;;
62707;SDS011;48769;51.624;5.886;2023-05-02T09:48:23;13.40;;;4.25;;
62707;SDS011;48769;51.624;5.886;2023-05-02T09:50:49;14.55;;;3.75;;
62707;SDS011;48769;51.624;5.886;2023-05-02T09:53:15;15.15;;;4.03;;
62707;SDS011;48769;51.624;5.886;2023-05-02T09:55:40;10.95;;;3.92;;
62707;SDS011;48769;51.624;5.886;2023-05-02T09:58:05;11.50;;;3.47;;
62707;SDS011;48769;51.624;5.886;2023-05-02T10:00:38;20.05;;;4.68;;
62707;SDS011;48769;51.624;5.886;2023-05-02T10:03:07;21.90;;;4.25;;
62707;SDS011;48769;51.624;5.886;2023-05-02T10:05:36;16.85;;;4.18;;
62707;SDS011;48769;51.624;5.886;2023-05-02T10:08:06;13.55;;;4.68;;
62707;SDS011;48769;51.624;5.886;2023-05-02T10:10:35;17.75;;;4.00;;
62707;SDS011;48769;51.624;5.886;2023-05-02T10:13:02;14.50;;;4.53;;
62707;SDS011;48769;51.624;5.886;2023-05-02T10:15:29;10.82;;;3.50;;
62707;SDS011;48769;51.624;5.886;2023-05-02T10:17:57;13.98;;;3.92;;
62707;SDS011;48769;51.624;5.886;2023-05-02T10:20:24;8.07;;;3.42;;
62707;SDS011;48769;51.624;5.886;2023-05-02T10:22:59;11.93;;;4.30;;
62707;SDS011;48769;51.624;5.886;2023-05-02T10:25:26;13.80;;;4.45;;
62707;SDS011;48769;51.624;5.886;2023-05-02T10:27:52;12.77;;;3.58;;
62707;SDS011;48769;51.624;5.886;2023-05-02T10:30:19;10.45;;;3.47;;
62707;SDS011;48769;51.624;5.886;2023-05-02T10:32:46;7.75;;;3.40;;
62707;SDS011;48769;51.624;5.886;2023-05-02T10:35:12;8.15;;;2.92;;
62707;SDS011;48769;51.624;5.886;2023-05-02T10:37:40;7.50;;;2.70;;
62707;SDS011;48769;51.624;5.886;2023-05-02T10:40:09;12.55;;;2.95;;
62707;SDS011;48769;51.624;5.886;2023-05-02T10:42:36;9.57;;;2.55;;
62707;SDS011;48769;51.624;5.886;2023-05-02T10:45:04;7.57;;;2.20;;
62707;SDS011;48769;51.624;5.886;2023-05-02T10:47:34;8.30;;;2.40;;
62707;SDS011;48769;51.624;5.886;2023-05-02T10:50:01;7.38;;;3.03;;
62707;SDS011;48769;51.624;5.886;2023-05-02T10:52:29;6.43;;;2.33;;
62707;SDS011;48769;51.624;5.886;2023-05-02T11:00:26;10.18;;;2.40;;
62707;SDS011;48769;51.624;5.886;2023-05-02T11:02:53;10.38;;;3.05;;
62707;SDS011;48769;51.624;5.886;2023-05-02T11:05:20;7.13;;;2.72;;
62707;SDS011;48769;51.624;5.886;2023-05-02T11:07:48;7.90;;;2.42;;
62707;SDS011;48769;51.624;5.886;2023-05-02T11:12:48;11.10;;;3.30;;
62707;SDS011;48769;51.624;5.886;2023-05-02T11:15:14;7.63;;;2.67;;
62707;SDS011;48769;51.624;5.886;2023-05-02T11:20:28;6.82;;;2.95;;
62707;SDS011;48769;51.624;5.886;2023-05-02T11:22:56;6.65;;;3.03;;
62707;SDS011;48769;51.624;5.886;2023-05-02T11:25:30;8.93;;;2.58;;
62707;SDS011;48769;51.624;5.886;2023-05-02T11:27:57;8.02;;;3.10;;
62707;SDS011;48769;51.624;5.886;2023-05-02T11:30:35;7.72;;;2.92;;
62707;SDS011;48769;51.624;5.886;2023-05-02T11:35:29;10.48;;;3.13;;
62707;SDS011;48769;51.624;5.886;2023-05-02T11:37:56;10.65;;;3.25;;
62707;SDS011;48769;51.624;5.886;2023-05-02T11:40:23;7.82;;;2.75;;
62707;SDS011;48769;51.624;5.886;2023-05-02T11:42:50;9.52;;;2.83;;
62707;SDS011;48769;51.624;5.886;2023-05-02T11:45:16;12.63;;;3.40;;
62707;SDS011;48769;51.624;5.886;2023-05-02T11:47:41;8.80;;;3.38;;
62707;SDS011;48769;51.624;5.886;2023-05-02T11:50:07;6.28;;;3.13;;
62707;SDS011;48769;51.624;5.886;2023-05-02T11:52:37;8.48;;;4.00;;
62707;SDS011;48769;51.624;5.886;2023-05-02T11:55:04;14.05;;;4.28;;
62707;SDS011;48769;51.624;5.886;2023-05-02T11:57:34;8.52;;;3.70;;
62707;SDS011;48769;51.624;5.886;2023-05-02T12:00:00;13.02;;;3.92;;
62707;SDS011;48769;51.624;5.886;2023-05-02T12:02:38;10.10;;;4.13;;
62707;SDS011;48769;51.624;5.886;2023-05-02T12:05:12;8.43;;;3.33;;
62707;SDS011;48769;51.624;5.886;2023-05-02T12:07:39;6.85;;;3.78;;
62707;SDS011;48769;51.624;5.886;2023-05-02T12:10:14;14.55;;;4.45;;
62707;SDS011;48769;51.624;5.886;2023-05-02T12:12:41;8.05;;;3.70;;
62707;SDS011;48769;51.624;5.886;2023-05-02T12:15:08;8.85;;;3.67;;
62707;SDS011;48769;51.624;5.886;2023-05-02T12:17:42;7.57;;;3.35;;
62707;SDS011;48769;51.624;5.886;2023-05-02T12:20:12;12.55;;;3.92;;
62707;SDS011;48769;51.624;5.886;2023-05-02T12:22:39;11.68;;;3.60;;
62707;SDS011;48769;51.624;5.886;2023-05-02T12:25:05;9.82;;;3.92;;
62707;SDS011;48769;51.624;5.886;2023-05-02T12:27:31;7.32;;;4.07;;
62707;SDS011;48769;51.624;5.886;2023-05-02T12:29:59;8.07;;;3.70;;
62707;SDS011;48769;51.624;5.886;2023-05-02T12:32:31;7.20;;;3.17;;
62707;SDS011;48769;51.624;5.886;2023-05-02T12:34:58;8.57;;;3.35;;
62707;SDS011;48769;51.624;5.886;2023-05-02T12:37:24;7.32;;;3.38;;
62707;SDS011;48769;51.624;5.886;2023-05-02T12:39:54;6.25;;;3.60;;
62707;SDS011;48769;51.624;5.886;2023-05-02T12:42:21;8.07;;;3.95;;
62707;SDS011;48769;51.624;5.886;2023-05-02T12:44:48;8.18;;;3.60;;
62707;SDS011;48769;51.624;5.886;2023-05-02T12:47:18;7.05;;;3.80;;
62707;SDS011;48769;51.624;5.886;2023-05-02T12:49:51;9.02;;;3.90;;
62707;SDS011;48769;51.624;5.886;2023-05-02T12:55:18;8.02;;;3.65;;
62707;SDS011;48769;51.624;5.886;2023-05-02T12:57:45;8.15;;;3.50;;
62707;SDS011;48769;51.624;5.886;2023-05-02T13:00:11;10.05;;;3.72;;
62707;SDS011;48769;51.624;5.886;2023-05-02T13:02:37;11.23;;;4.38;;
62707;SDS011;48769;51.624;5.886;2023-05-02T13:05:13;7.03;;;3.70;;
62707;SDS011;48769;51.624;5.886;2023-05-02T13:07:38;8.73;;;4.10;;
62707;SDS011;48769;51.624;5.886;2023-05-02T13:10:04;8.32;;;3.95;;
62707;SDS011;48769;51.624;5.886;2023-05-02T13:12:29;10.70;;;4.57;;
62707;SDS011;48769;51.624;5.886;2023-05-02T13:14:55;8.95;;;4.63;;
62707;SDS011;48769;51.624;5.886;2023-05-02T13:17:20;7.68;;;3.90;;
62707;SDS011;48769;51.624;5.886;2023-05-02T13:19:46;10.23;;;4.32;;
62707;SDS011;48769;51.624;5.886;2023-05-02T13:22:11;10.52;;;3.70;;
62707;SDS011;48769;51.624;5.886;2023-05-02T13:24:36;11.00;;;3.97;;
62707;SDS011;48769;51.624;5.886;2023-05-02T13:27:02;9.18;;;4.47;;
62707;SDS011;48769;51.624;5.886;2023-05-02T13:29:27;11.15;;;4.38;;
62707;SDS011;48769;51.624;5.886;2023-05-02T13:31:53;16.30;;;4.40;;
62707;SDS011;48769;51.624;5.886;2023-05-02T13:34:18;7.85;;;4.13;;
62707;SDS011;48769;51.624;5.886;2023-05-02T13:36:43;11.77;;;4.53;;
62707;SDS011;48769;51.624;5.886;2023-05-02T13:39:10;13.20;;;4.47;;
62707;SDS011;48769;51.624;5.886;2023-05-02T13:41:36;9.40;;;4.00;;
62707;SDS011;48769;51.624;5.886;2023-05-02T13:44:01;12.63;;;4.15;;
62707;SDS011;48769;51.624;5.886;2023-05-02T13:46:27;10.70;;;4.20;;
62707;SDS011;48769;51.624;5.886;2023-05-02T13:48:53;11.00;;;3.85;;
62707;SDS011;48769;51.624;5.886;2023-05-02T13:51:18;12.05;;;5.05;;
62707;SDS011;48769;51.624;5.886;2023-05-02T13:53:43;11.20;;;4.13;;
62707;SDS011;48769;51.624;5.886;2023-05-02T13:56:09;9.10;;;4.18;;
62707;SDS011;48769;51.624;5.886;2023-05-02T13:58:34;6.38;;;3.58;;
62707;SDS011;48769;51.624;5.886;2023-05-02T14:00:59;7.47;;;4.28;;
62707;SDS011;48769;51.624;5.886;2023-05-02T14:03:25;10.50;;;4.40;;
62707;SDS011;48769;51.624;5.886;2023-05-02T14:05:50;14.25;;;4.57;;
62707;SDS011;48769;51.624;5.886;2023-05-02T14:08:16;12.73;;;3.92;;
62707;SDS011;48769;51.624;5.886;2023-05-02T14:10:43;9.68;;;4.40;;
62707;SDS011;48769;51.624;5.886;2023-05-02T14:13:09;10.18;;;4.18;;
62707;SDS011;48769;51.624;5.886;2023-05-02T14:15:34;8.18;;;4.18;;
62707;SDS011;48769;51.624;5.886;2023-05-02T14:18:01;10.32;;;5.00;;
62707;SDS011;48769;51.624;5.886;2023-05-02T14:20:26;12.50;;;4.60;;
62707;SDS011;48769;51.624;5.886;2023-05-02T14:22:52;11.05;;;4.60;;
62707;SDS011;48769;51.624;5.886;2023-05-02T14:25:17;9.40;;;4.50;;
62707;SDS011;48769;51.624;5.886;2023-05-02T14:27:44;11.50;;;4.50;;
62707;SDS011;48769;51.624;5.886;2023-05-02T14:30:10;16.60;;;4.97;;
62707;SDS011;48769;51.624;5.886;2023-05-02T14:32:36;7.43;;;4.10;;
62707;SDS011;48769;51.624;5.886;2023-05-02T14:35:01;10.00;;;4.18;;
62707;SDS011;48769;51.624;5.886;2023-05-02T14:37:27;11.57;;;4.30;;
62707;SDS011;48769;51.624;5.886;2023-05-02T14:39:52;11.48;;;4.95;;
62707;SDS011;48769;51.624;5.886;2023-05-02T14:42:20;7.32;;;4.55;;
62707;SDS011;48769;51.624;5.886;2023-05-02T14:44:46;13.55;;;5.20;;
62707;SDS011;48769;51.624;5.886;2023-05-02T14:47:11;15.25;;;5.75;;
62707;SDS011;48769;51.624;5.886;2023-05-02T14:49:37;11.40;;;4.03;;
62707;SDS011;48769;51.624;5.886;2023-05-02T14:52:02;12.93;;;4.47;;
62707;SDS011;48769;51.624;5.886;2023-05-02T14:54:28;13.95;;;4.95;;
62707;SDS011;48769;51.624;5.886;2023-05-02T14:56:54;11.38;;;5.05;;
62707;SDS011;48769;51.624;5.886;2023-05-02T14:59:20;11.52;;;5.63;;
62707;SDS011;48769;51.624;5.886;2023-05-02T15:01:45;9.52;;;5.05;;
62707;SDS011;48769;51.624;5.886;2023-05-02T15:04:11;11.50;;;5.32;;
62707;SDS011;48769;51.624;5.886;2023-05-02T15:06:36;12.93;;;5.13;;
62707;SDS011;48769;51.624;5.886;2023-05-02T15:09:02;11.90;;;5.40;;
62707;SDS011;48769;51.624;5.886;2023-05-02T15:11:28;12.18;;;5.45;;
62707;SDS011;48769;51.624;5.886;2023-05-02T15:13:54;13.02;;;5.47;;
62707;SDS011;48769;51.624;5.886;2023-05-02T15:16:20;15.38;;;5.93;;
62707;SDS011;48769;51.624;5.886;2023-05-02T15:18:45;11.30;;;5.88;;
62707;SDS011;48769;51.624;5.886;2023-05-02T15:21:11;12.25;;;6.43;;
62707;SDS011;48769;51.624;5.886;2023-05-02T15:23:36;14.25;;;5.35;;
62707;SDS011;48769;51.624;5.886;2023-05-02T15:26:02;14.65;;;5.00;;
62707;SDS011;48769;51.624;5.886;2023-05-02T15:28:27;9.98;;;4.85;;
62707;SDS011;48769;51.624;5.886;2023-05-02T15:30:53;10.65;;;4.80;;
62707;SDS011;48769;51.624;5.886;2023-05-02T15:33:18;14.40;;;5.38;;
62707;SDS011;48769;51.624;5.886;2023-05-02T15:35:53;14.32;;;5.50;;